メインページ
METAR-TAF:

METAR-TAF

空港 :

Casino, オーストラリア

緯度: 28-52-39S, 経度: 153-03-07E, 海抜: 21m

現時点の気象観測

当レポートは30分前の10:00(UTC)に作成
南/南西の風 4kt
気温 18°C
湿度 88%
気圧 1017 hPa

METAR: YCAS 221000Z AUTO 21004KT //// // ////// 18/16 Q1017

時間: 21:30 (10:30 UTC)


TAF: 見つかりません

4,000以上の空港の気象観測と天気予報(METAR報とTAF報)

利用可能な観測所は地図上に黄色い丸と赤い丸で示す。

丸の上にカーソルを重ねると観測所名を参照できる。

次にクリックすると気象観測と天気予報を参照できる。

マップの切り替え:黒色「×」印の緑ボタンをクリックして拡大、「-」印の緑ボタンをクリックして縮小、緑色の三角印をクリックして隣りの地図に切り替え


METAR-TAF: